createdAt,value
2019-05-12T00:01:39.888Z,97388.84
2019-05-12T00:06:41.556Z,97393.83
2019-05-12T00:11:43.327Z,97390.30
2019-05-12T00:16:45.326Z,97392.83
2019-05-12T00:21:48.287Z,97403.16
2019-05-12T00:26:51.879Z,97401.80
2019-05-12T00:31:53.370Z,97414.45
2019-05-12T00:36:54.980Z,97414.27
2019-05-12T00:41:58.581Z,97407.44
2019-05-12T00:46:59.903Z,97402.63
2019-05-12T00:52:01.574Z,97402.47
2019-05-12T00:57:03.047Z,97405.13
2019-05-12T01:02:04.820Z,97404.50
2019-05-12T01:07:08.533Z,97406.50
2019-05-12T01:12:09.870Z,97397.68
2019-05-12T01:17:11.345Z,97404.53
2019-05-12T01:22:12.817Z,97398.02
2019-05-12T01:27:14.306Z,97405.83
2019-05-12T01:32:38.077Z,97407.77
2019-05-12T01:37:39.275Z,97402.37
2019-05-12T01:42:40.856Z,97407.33
2019-05-12T01:47:42.326Z,97402.16
2019-05-12T01:52:45.114Z,97409.16
2019-05-12T01:57:48.539Z,97415.45
2019-05-12T02:02:50.075Z,97421.09
2019-05-12T02:07:53.537Z,97420.16
2019-05-12T02:12:55.203Z,97418.91
2019-05-12T02:17:58.938Z,97417.99
2019-05-12T02:23:00.171Z,97422.31
2019-05-12T02:28:01.854Z,97424.59
2019-05-12T02:33:05.244Z,97431.29
2019-05-12T02:38:06.860Z,97435.19
2019-05-12T02:43:08.485Z,97456.93
2019-05-12T02:48:10.075Z,97456.56
2019-05-12T02:53:14.564Z,97452.97
2019-05-12T02:58:17.770Z,97459.98
2019-05-12T03:03:20.549Z,97460.05
2019-05-12T03:08:25.515Z,97462.76
2019-05-12T03:13:26.217Z,97470.50
2019-05-12T03:18:27.822Z,97470.79
2019-05-12T03:23:29.280Z,97475.73
2019-05-12T03:28:30.751Z,97482.07
2019-05-12T03:33:36.120Z,97483.73
2019-05-12T03:38:36.224Z,97481.80
2019-05-12T03:43:38.033Z,97493.48
2019-05-12T03:48:39.511Z,97498.33
2019-05-12T03:53:40.984Z,97500.92
2019-05-12T03:58:45.342Z,97506.92
2019-05-12T04:03:45.958Z,97518.36
2019-05-12T04:08:47.555Z,97527.17
2019-05-12T04:13:49.168Z,97531.87
2019-05-12T04:18:50.650Z,97543.47
2019-05-12T04:23:54.848Z,97550.88
2019-05-12T04:28:55.511Z,97561.73
2019-05-12T04:33:56.988Z,97563.38
2019-05-12T04:38:58.456Z,97574.64
2019-05-12T04:43:59.997Z,97596.55
2019-05-12T04:49:04.974Z,97611.50
2019-05-12T04:54:06.076Z,97622.25
2019-05-12T04:59:08.005Z,97627.81
2019-05-12T05:04:09.530Z,97631.35
2019-05-12T05:09:14.208Z,97637.59
2019-05-12T05:14:14.638Z,97637.78
2019-05-12T05:19:16.239Z,97646.10
2019-05-12T05:24:17.735Z,97648.84
2019-05-12T05:29:19.363Z,97660.97
2019-05-12T05:34:23.456Z,97663.84
2019-05-12T05:39:24.595Z,97670.27
2019-05-12T05:44:29.210Z,97679.62
2019-05-12T05:49:29.618Z,97688.38
2019-05-12T05:54:33.672Z,97695.39
2019-05-12T05:59:36.859Z,97693.89
2019-05-12T06:04:39.250Z,97698.01
2019-05-12T06:09:43.281Z,97704.52
2019-05-12T06:14:46.716Z,97712.16
2019-05-12T06:19:48.413Z,97722.05
2019-05-12T06:24:56.918Z,97725.23
2019-05-12T06:30:00.863Z,97724.34
2019-05-12T06:35:01.396Z,97731.63
2019-05-12T06:40:00.649Z,97732.94
2019-05-12T06:45:03.991Z,97736.11
2019-05-12T06:50:06.417Z,97752.05
2019-05-12T06:55:07.994Z,97744.13
2019-05-12T07:00:10.795Z,97751.97
2019-05-12T07:05:14.423Z,97762.34
2019-05-12T07:10:35.580Z,97763.06
2019-05-12T07:15:19.819Z,97773.95
2019-05-12T07:20:23.895Z,97773.16
2019-05-12T07:25:31.142Z,97773.69
2019-05-12T07:30:32.653Z,97788.42
2019-05-12T07:35:34.095Z,97784.25
2019-05-12T07:40:37.910Z,97792.25
2019-05-12T07:45:44.166Z,97788.49
2019-05-12T07:50:50.167Z,97791.92
2019-05-12T07:55:49.665Z,97803.40
2019-05-12T08:00:53.953Z,97812.06
2019-05-12T08:05:59.779Z,97819.84
2019-05-12T08:10:58.120Z,97823.78
2019-05-12T08:15:59.644Z,97833.74
2019-05-12T08:21:03.575Z,97833.00
2019-05-12T08:26:12.073Z,97833.77
2019-05-12T08:31:08.189Z,97841.75
2019-05-12T08:36:11.725Z,97855.19
2019-05-12T08:41:14.640Z,97858.09
2019-05-12T08:46:16.458Z,97862.98
2019-05-12T08:51:20.082Z,97867.73
2019-05-12T08:56:24.029Z,97876.56
2019-05-12T09:01:29.112Z,97878.74
2019-05-12T09:06:30.400Z,97871.51
2019-05-12T09:11:33.582Z,97883.63
2019-05-12T09:16:35.260Z,97894.00
2019-05-12T09:21:37.200Z,97906.47
2019-05-12T09:26:38.894Z,97910.08
2019-05-12T09:31:40.378Z,97914.45
2019-05-12T09:36:43.780Z,97924.02
2019-05-12T09:41:50.654Z,97924.35
2019-05-12T09:46:48.754Z,97930.38
2019-05-12T09:51:50.247Z,97937.53
2019-05-12T09:56:57.810Z,97944.70
2019-05-12T10:01:55.230Z,97948.38
2019-05-12T10:06:56.839Z,97949.00
2019-05-12T10:12:00.554Z,97953.81
2019-05-12T10:17:03.624Z,97948.02
2019-05-12T10:22:05.512Z,97951.45
2019-05-12T10:27:08.176Z,97960.14
2019-05-12T10:32:10.484Z,97973.09
2019-05-12T10:37:13.318Z,97991.58
2019-05-12T10:42:15.082Z,97999.71
2019-05-12T10:47:16.560Z,98011.23
2019-05-12T10:52:18.038Z,98020.59
2019-05-12T10:57:19.652Z,98021.38
2019-05-12T11:02:26.459Z,98022.97
2019-05-12T11:07:28.109Z,98028.19
2019-05-12T11:12:29.204Z,98030.95
2019-05-12T11:17:49.897Z,98036.84
2019-05-12T11:22:51.437Z,98051.67
2019-05-12T11:27:54.888Z,98066.77
2019-05-12T11:32:59.483Z,98080.69
2019-05-12T11:38:00.917Z,98091.62
2019-05-12T11:43:04.085Z,98095.63
2019-05-12T11:48:10.111Z,98105.84
2019-05-12T11:53:09.615Z,98123.01
2019-05-12T11:58:11.765Z,98139.23
2019-05-12T12:03:17.989Z,98145.63
2019-05-12T12:08:16.824Z,98150.63
2019-05-12T12:13:24.448Z,98159.82
2019-05-12T12:18:23.533Z,98170.76
2019-05-12T12:23:25.294Z,98180.88
2019-05-12T12:28:26.767Z,98186.23
2019-05-12T12:33:30.934Z,98188.58
2019-05-12T12:38:33.467Z,98185.28
2019-05-12T12:43:35.018Z,98182.86
2019-05-12T12:48:36.523Z,98188.42
2019-05-12T12:53:38.004Z,98184.91
2019-05-12T12:58:39.490Z,98186.69
2019-05-12T13:03:43.409Z,98197.50
2019-05-12T13:08:44.792Z,98209.44
2019-05-12T13:13:46.304Z,98224.89
2019-05-12T13:18:47.777Z,98244.66
2019-05-12T13:23:51.091Z,98250.78
2019-05-12T13:28:54.883Z,98254.39
2019-05-12T13:33:56.597Z,98264.64
2019-05-12T13:38:59.314Z,98269.56
2019-05-12T13:44:00.838Z,98295.61
2019-05-12T13:49:03.183Z,98288.72
2019-05-12T13:54:04.879Z,98304.23
2019-05-12T13:59:06.354Z,98298.70
2019-05-12T14:04:07.872Z,98305.94
2019-05-12T14:09:09.845Z,98306.25
2019-05-12T14:14:15.190Z,98313.03
2019-05-12T14:19:14.842Z,98313.27
2019-05-12T14:24:16.426Z,98327.73
2019-05-12T14:29:20.486Z,98330.88
2019-05-12T14:34:23.501Z,98327.73
2019-05-12T14:39:24.661Z,98326.64
2019-05-12T14:44:26.135Z,98324.05
2019-05-12T14:49:30.509Z,98331.19
2019-05-12T14:54:31.647Z,98340.70
2019-05-12T14:59:36.698Z,98353.02
2019-05-12T15:04:36.735Z,98354.69
2019-05-12T15:09:38.413Z,98353.93
2019-05-12T15:14:39.994Z,98347.98
2019-05-12T15:19:43.891Z,98362.45
2019-05-12T15:24:49.210Z,98371.63
2019-05-12T15:29:49.998Z,98371.43
2019-05-12T15:34:52.099Z,98381.20
2019-05-12T15:39:53.592Z,98391.02
2019-05-12T15:44:55.066Z,98393.66
2019-05-12T15:49:57.650Z,98390.55
2019-05-12T15:54:59.173Z,98397.27
2019-05-12T16:00:00.770Z,98400.18
2019-05-12T16:05:06.751Z,98411.86
2019-05-12T16:10:09.374Z,98417.53
2019-05-12T16:15:17.074Z,98427.31
2019-05-12T16:20:15.619Z,98427.77
2019-05-12T16:25:20.563Z,98435.73
2019-05-12T16:30:25.998Z,98439.70
2019-05-12T16:35:28.481Z,98434.40
2019-05-12T16:40:28.961Z,98435.95
2019-05-12T16:45:30.550Z,98438.83
2019-05-12T16:50:34.449Z,98439.09
2019-05-12T16:55:44.910Z,98441.11
2019-05-12T17:00:44.030Z,98447.95
2019-05-12T17:05:42.814Z,98448.38
2019-05-12T17:10:49.748Z,98450.30
2019-05-12T17:15:48.752Z,98459.27
2019-05-12T17:20:51.606Z,98463.59
2019-05-12T17:25:53.200Z,98475.37
2019-05-12T17:30:54.683Z,98483.05
2019-05-12T17:35:56.193Z,98492.93
2019-05-12T17:41:00.676Z,98495.69
2019-05-12T17:46:04.142Z,98503.64
2019-05-12T17:51:04.790Z,98513.03
2019-05-12T17:56:06.367Z,98519.00
2019-05-12T18:01:08.067Z,98532.53
2019-05-12T18:06:09.646Z,98534.07
2019-05-12T18:11:11.839Z,98537.29
2019-05-12T18:16:20.399Z,98549.22
2019-05-12T18:21:21.677Z,98564.17
2019-05-12T18:26:24.483Z,98578.20
2019-05-12T18:31:25.607Z,98582.84
2019-05-12T18:36:27.075Z,98583.63
2019-05-12T18:41:28.554Z,98597.31
2019-05-12T18:46:30.033Z,98607.57
2019-05-12T18:51:34.131Z,98618.84
2019-05-12T18:56:35.209Z,98619.81
2019-05-12T19:01:36.883Z,98625.95
2019-05-12T19:06:38.371Z,98629.97
2019-05-12T19:11:42.197Z,98634.81
2019-05-12T19:16:43.784Z,98645.96
2019-05-12T19:21:46.884Z,98645.30
2019-05-12T19:26:48.716Z,98650.88
2019-05-12T19:31:52.497Z,98645.41
2019-05-12T19:36:53.982Z,98649.48
2019-05-12T19:41:55.570Z,98650.98
2019-05-12T19:46:57.096Z,98650.06
2019-05-12T19:51:58.917Z,98645.70
2019-05-12T19:57:00.433Z,98651.10
2019-05-12T20:02:04.073Z,98654.10
2019-05-12T20:07:05.609Z,98657.34
2019-05-12T20:12:13.170Z,98663.78
2019-05-12T20:17:10.707Z,98665.66
2019-05-12T20:22:13.820Z,98670.30
2019-05-12T20:27:21.643Z,98677.69
2019-05-12T20:32:20.022Z,98672.09
2019-05-12T20:37:21.509Z,98673.02
2019-05-12T20:42:23.622Z,98678.32
2019-05-12T20:47:25.388Z,98684.01
2019-05-12T20:52:27.519Z,98683.05
2019-05-12T20:57:29.041Z,98685.63
2019-05-12T21:02:30.527Z,98690.46
2019-05-12T21:07:33.831Z,98686.66
2019-05-12T21:12:39.973Z,98687.63
2019-05-12T21:17:43.469Z,98684.98
2019-05-12T21:22:43.750Z,98693.09
2019-05-12T21:27:47.763Z,98686.30
2019-05-12T21:32:56.463Z,98697.45
2019-05-12T21:37:53.783Z,98704.17
2019-05-12T21:42:55.445Z,98703.50
2019-05-12T21:47:57.227Z,98706.92
2019-05-12T21:52:59.988Z,98703.40
2019-05-12T21:58:10.622Z,98706.92
2019-05-12T22:03:08.091Z,98718.34
2019-05-12T22:08:17.706Z,98719.38
2019-05-12T22:13:17.946Z,98723.45
2019-05-12T22:18:18.542Z,98726.02
2019-05-12T22:23:20.323Z,98727.98
2019-05-12T22:28:23.885Z,98722.23
2019-05-12T22:33:25.218Z,98732.83
2019-05-12T22:38:26.800Z,98735.53
2019-05-12T22:43:31.453Z,98732.05
2019-05-12T22:48:37.267Z,98730.73
2019-05-12T22:53:35.092Z,98735.09
2019-05-12T22:58:36.558Z,98744.25
2019-05-12T23:03:45.337Z,98746.25
2019-05-12T23:08:47.090Z,98754.00
2019-05-12T23:13:44.986Z,98756.17
2019-05-12T23:18:46.564Z,98753.61
2019-05-12T23:23:49.850Z,98750.87
2019-05-12T23:28:53.473Z,98755.58
2019-05-12T23:33:54.866Z,98758.81
2019-05-12T23:39:00.526Z,98757.69
2019-05-12T23:43:59.724Z,98760.42
2019-05-12T23:49:03.658Z,98764.69
2019-05-12T23:54:04.590Z,98770.92
2019-05-12T23:59:06.130Z,98770.08
